Time;durP1;ratioP1;P1;durP2;ratioP2;P2;SDS_P1;SDS_P2;PMS_P1;PMS_P2;Temp;Humidity;BMP_temperature;BMP_pressure;BME280_temperature;BME280_humidity;BME280_pressure;Samples;Min_cycle;Max_cycle;Signal;HPM_P1;HPM_P2
2022/01/21 00:00:58;;;;;;;2.90;1.48;;;4.20;99.90;;;;;;4943010;28;20098;-59
2022/01/21 00:03:26;;;;;;;4.85;1.75;;;4.20;99.90;;;;;;4942998;28;20495;-59
2022/01/21 00:05:52;;;;;;;5.00;1.67;;;4.10;99.90;;;;;;4942776;28;20058;-59
2022/01/21 00:08:19;;;;;;;3.90;1.63;;;4.10;99.90;;;;;;4943886;28;20178;-58
2022/01/21 00:10:46;;;;;;;3.08;1.60;;;4.10;99.90;;;;;;4942308;28;20096;-58
2022/01/21 00:13:22;;;;;;;2.80;1.50;;;4.10;99.90;;;;;;4939310;28;20516;-58
2022/01/21 00:15:49;;;;;;;2.55;1.30;;;4.10;99.90;;;;;;4942959;28;20177;-58
2022/01/21 00:18:15;;;;;;;4.25;1.63;;;4.10;99.90;;;;;;4943628;28;20109;-58
2022/01/21 00:31:44;;;;;;;2.92;1.38;;;4.10;99.90;;;;;;4943781;28;20082;-58
2022/01/21 00:34:11;;;;;;;3.85;1.58;;;4.10;99.90;;;;;;4941262;28;20138;-58
2022/01/21 00:36:37;;;;;;;3.22;1.52;;;4.20;99.90;;;;;;4943196;28;20519;-59
2022/01/21 00:39:05;;;;;;;4.75;1.55;;;4.20;99.90;;;;;;4943228;28;20059;-58
2022/01/21 00:41:36;;;;;;;3.15;1.60;;;4.10;99.90;;;;;;4944442;28;20137;-58
2022/01/21 00:44:03;;;;;;;3.42;1.60;;;4.20;99.90;;;;;;4944513;28;20507;-58
2022/01/21 00:46:30;;;;;;;3.30;1.20;;;4.20;99.90;;;;;;4944611;28;20566;-59
2022/01/21 00:48:57;;;;;;;3.38;1.17;;;4.20;99.90;;;;;;4943272;28;20563;-58
2022/01/21 00:51:24;;;;;;;2.63;1.30;;;4.20;99.90;;;;;;4943404;28;20094;-58
2022/01/21 00:53:51;;;;;;;2.80;1.30;;;4.20;99.90;;;;;;4943895;28;20281;-58
2022/01/21 00:56:18;;;;;;;3.47;1.67;;;4.20;99.90;;;;;;4944033;28;20086;-58
2022/01/21 00:58:44;;;;;;;2.47;1.10;;;4.20;99.90;;;;;;4945619;28;20137;-59
2022/01/21 01:01:12;;;;;;;2.60;1.30;;;4.10;99.90;;;;;;4946335;28;20075;-58
2022/01/21 01:03:39;;;;;;;2.22;1.15;;;4.10;99.90;;;;;;4947521;28;20115;-58
2022/01/21 01:06:05;;;;;;;2.63;1.40;;;4.10;99.90;;;;;;4947644;28;20086;-58
2022/01/21 01:08:32;;;;;;;2.15;1.30;;;4.10;99.90;;;;;;4948138;28;20043;-59
2022/01/21 01:11:27;;;;;;;2.22;1.20;;;4.00;99.90;;;;;;4947555;28;20079;-59
2022/01/21 01:22:04;;;;;;;3.38;1.40;;;3.70;99.90;;;;;;4945973;28;20142;-59
2022/01/21 01:30:13;;;;;;;3.13;1.52;;;3.40;99.90;;;;;;4942227;28;20134;-59
2022/01/21 01:32:41;;;;;;;5.53;1.70;;;3.30;99.90;;;;;;4945789;28;20134;-58
2022/01/21 01:35:09;;;;;;;4.85;1.50;;;3.20;99.90;;;;;;4944571;28;20169;-58
2022/01/21 01:51:13;;;;;;;4.05;1.63;;;2.80;99.90;;;;;;4946835;28;20127;-58
2022/01/21 01:53:44;;;;;;;2.00;1.10;;;2.80;99.90;;;;;;4950478;28;20400;-59
2022/01/21 01:56:12;;;;;;;6.00;1.58;;;2.80;99.90;;;;;;4981011;28;20456;-58
2022/01/21 01:58:41;;;;;;;2.80;1.30;;;2.70;99.90;;;;;;4964991;28;20137;-58
2022/01/21 02:01:08;;;;;;;2.75;1.50;;;2.70;99.90;;;;;;4963288;28;20058;-58
2022/01/21 02:03:35;;;;;;;3.45;1.40;;;2.70;99.90;;;;;;4946472;28;20207;-58
2022/01/21 02:06:02;;;;;;;5.57;1.40;;;2.60;99.90;;;;;;4946288;28;20135;-58
2022/01/21 02:08:29;;;;;;;3.80;1.55;;;2.60;99.90;;;;;;4945385;28;20122;-59
2022/01/21 02:10:56;;;;;;;3.28;1.70;;;2.50;99.90;;;;;;4945042;28;20546;-58
2022/01/21 02:13:26;;;;;;;2.85;1.23;;;2.50;99.90;;;;;;4946706;28;20094;-58
2022/01/21 02:16:02;;;;;;;2.50;1.27;;;2.50;99.90;;;;;;4946232;28;20661;-58
2022/01/21 02:21:32;;;;;;;8.98;1.17;;;2.40;99.90;;;;;;4946368;28;20509;-59
2022/01/21 02:24:01;;;;;;;1.88;1.00;;;2.40;99.90;;;;;;4944387;28;20055;-59
2022/01/21 02:26:28;;;;;;;3.58;1.50;;;2.30;99.90;;;;;;4946555;28;20519;-59
2022/01/21 02:28:56;;;;;;;2.30;1.20;;;2.30;99.90;;;;;;4946562;28;20112;-59
2022/01/21 02:31:22;;;;;;;1.77;1.15;;;2.20;99.90;;;;;;4948089;28;20114;-59
2022/01/21 02:33:49;;;;;;;3.05;1.20;;;2.20;99.90;;;;;;4946345;29;20058;-58
2022/01/21 02:36:16;;;;;;;2.47;1.40;;;2.20;99.90;;;;;;4947812;28;20093;-58
2022/01/21 02:38:43;;;;;;;2.22;1.33;;;2.10;99.90;;;;;;4962939;28;20142;-59
2022/01/21 02:41:10;;;;;;;1.27;0.80;;;2.10;99.90;;;;;;4962435;28;20106;-59
2022/01/21 02:43:36;;;;;;;4.57;0.85;;;2.10;99.90;;;;;;4947764;28;20086;-59
2022/01/21 02:46:07;;;;;;;1.92;1.10;;;2.10;99.90;;;;;;4947860;28;20149;-59
2022/01/21 02:48:37;;;;;;;3.75;1.40;;;2.00;99.90;;;;;;4947745;28;20138;-60
2022/01/21 02:51:06;;;;;;;2.40;1.08;;;2.00;99.90;;;;;;4946753;28;20170;-58
2022/01/21 02:56:07;;;;;;;1.70;1.10;;;2.00;99.90;;;;;;4947543;28;20075;-59
2022/01/21 02:58:33;;;;;;;2.00;1.10;;;2.00;99.90;;;;;;4947687;28;20147;-59
2022/01/21 03:01:00;;;;;;;2.85;1.17;;;1.90;99.90;;;;;;4946683;28;20061;-59
2022/01/21 03:03:27;;;;;;;2.20;1.27;;;1.90;99.90;;;;;;4947115;28;20138;-59
2022/01/21 03:05:54;;;;;;;1.92;0.93;;;1.90;99.90;;;;;;4945497;28;20047;-59
2022/01/21 03:08:21;;;;;;;2.33;1.13;;;1.80;99.90;;;;;;4946000;29;20082;-59
2022/01/21 03:10:47;;;;;;;4.07;1.67;;;1.80;99.90;;;;;;4945637;28;20131;-60
2022/01/21 03:13:15;;;;;;;2.45;1.33;;;1.70;99.90;;;;;;4947428;28;20167;-59
2022/01/21 03:15:42;;;;;;;2.38;1.25;;;1.70;99.90;;;;;;4947065;28;20201;-59
2022/01/21 03:18:08;;;;;;;3.83;1.30;;;1.70;99.90;;;;;;4948291;28;20090;-59
2022/01/21 03:20:35;;;;;;;2.92;1.58;;;1.60;99.90;;;;;;4945447;28;20146;-58
2022/01/21 03:23:02;;;;;;;2.17;1.13;;;1.60;99.90;;;;;;4946697;28;20702;-59
2022/01/21 03:25:28;;;;;;;2.33;1.25;;;1.60;99.90;;;;;;4947157;28;20047;-59
2022/01/21 03:27:55;;;;;;;4.00;1.80;;;1.50;99.90;;;;;;4947531;29;20157;-59
2022/01/21 03:30:22;;;;;;;2.47;1.38;;;1.50;99.90;;;;;;4946707;28;20529;-59
2022/01/21 03:32:49;;;;;;;2.78;1.40;;;1.50;99.90;;;;;;4947283;28;20131;-58
2022/01/21 03:35:16;;;;;;;4.63;1.77;;;1.40;99.90;;;;;;4945682;28;20479;-59
2022/01/21 03:37:42;;;;;;;4.35;1.92;;;1.40;99.90;;;;;;4946402;28;20129;-59
2022/01/21 03:40:10;;;;;;;4.30;2.08;;;1.30;99.90;;;;;;4946764;29;20101;-59
2022/01/21 03:42:36;;;;;;;5.22;1.80;;;1.30;99.90;;;;;;4946954;28;20094;-60
2022/01/21 03:45:03;;;;;;;3.17;1.70;;;1.20;99.90;;;;;;4946444;29;20546;-59
2022/01/21 03:47:30;;;;;;;3.78;1.45;;;1.20;99.90;;;;;;4946864;29;20500;-58
2022/01/21 03:50:18;;;;;;;2.05;1.40;;;1.20;99.90;;;;;;4945776;28;20090;-58
2022/01/21 03:52:43;;;;;;;3.92;1.65;;;1.20;99.90;;;;;;4946411;28;20552;-59
2022/01/21 03:55:10;;;;;;;4.57;2.30;;;1.20;99.90;;;;;;4946204;29;20043;-59
2022/01/21 03:57:37;;;;;;;2.95;1.60;;;1.20;99.90;;;;;;4946865;28;20087;-58
2022/01/21 04:00:09;;;;;;;6.25;3.85;;;1.30;99.90;;;;;;4946041;29;20098;-59
2022/01/21 04:02:35;;;;;;;4.10;1.83;;;1.20;99.90;;;;;;4946614;28;20085;-59
2022/01/21 04:05:02;;;;;;;3.38;1.83;;;1.30;99.90;;;;;;4945061;28;20146;-59
2022/01/21 04:07:30;;;;;;;3.13;1.70;;;1.30;99.90;;;;;;4946295;29;20498;-59
2022/01/21 04:09:56;;;;;;;2.78;1.40;;;1.30;99.90;;;;;;4946021;28;20130;-59
2022/01/21 04:12:23;;;;;;;1.92;1.15;;;1.40;99.90;;;;;;4946458;28;20143;-59
2022/01/21 04:14:51;;;;;;;4.78;1.60;;;1.40;99.90;;;;;;4946470;28;20078;-59
2022/01/21 04:17:18;;;;;;;2.53;1.27;;;1.40;99.90;;;;;;4945979;28;20142;-59
2022/01/21 04:19:45;;;;;;;2.30;1.30;;;1.40;99.90;;;;;;4945001;28;20698;-60
2022/01/21 04:22:11;;;;;;;2.45;1.35;;;1.30;99.90;;;;;;4946107;28;20140;-59
2022/01/21 04:24:39;;;;;;;4.13;1.70;;;1.30;99.90;;;;;;4945683;28;20570;-59
2022/01/21 04:27:06;;;;;;;3.38;1.63;;;1.20;99.90;;;;;;4946363;28;20059;-59
2022/01/21 04:29:33;;;;;;;3.72;1.52;;;1.10;99.90;;;;;;4945949;29;20139;-59
2022/01/21 04:31:59;;;;;;;3.00;1.70;;;1.10;99.90;;;;;;4945563;28;20133;-58
2022/01/21 04:34:26;;;;;;;3.65;1.63;;;1.10;99.90;;;;;;4942719;28;20055;-59
2022/01/21 04:36:53;;;;;;;2.33;1.33;;;1.00;99.90;;;;;;4945488;28;20134;-59
2022/01/21 04:39:26;;;;;;;4.65;1.67;;;1.00;99.90;;;;;;4945553;28;20138;-59
2022/01/21 04:47:24;;;;;;;3.08;1.25;;;0.90;99.90;;;;;;4945784;28;20424;-59
2022/01/21 04:49:51;;;;;;;3.88;1.42;;;0.90;99.90;;;;;;4944875;28;20133;-59
2022/01/21 04:52:17;;;;;;;2.22;1.17;;;0.80;99.90;;;;;;4945246;28;20087;-59
2022/01/21 04:54:44;;;;;;;4.25;1.13;;;0.80;99.90;;;;;;4945338;29;20093;-59
2022/01/21 04:57:11;;;;;;;1.67;1.00;;;0.80;99.90;;;;;;4945888;28;20055;-59
2022/01/21 04:59:40;;;;;;;4.75;1.63;;;0.70;99.90;;;;;;4945642;28;20522;-59
2022/01/21 05:02:06;;;;;;;2.90;1.52;;;0.70;99.90;;;;;;4945273;28;20470;-59
2022/01/21 05:04:33;;;;;;;1.95;1.20;;;0.60;99.90;;;;;;4943554;28;20146;-59
2022/01/21 05:07:03;;;;;;;2.50;1.23;;;0.60;99.90;;;;;;4945854;28;20086;-59
2022/01/21 05:09:32;;;;;;;3.58;1.20;;;0.60;99.90;;;;;;4945247;28;20071;-59
2022/01/21 05:12:08;;;;;;;2.80;1.30;;;0.60;99.90;;;;;;4945043;28;20071;-59
2022/01/21 05:15:11;;;;;;;2.05;1.10;;;0.50;99.90;;;;;;4926862;29;20584;-58
2022/01/21 05:17:45;;;;;;;3.60;1.45;;;0.50;99.90;;;;;;4926203;29;20079;-59
2022/01/21 05:20:12;;;;;;;2.50;1.27;;;0.40;99.90;;;;;;4926023;29;20146;-59
2022/01/21 05:22:38;;;;;;;3.20;1.15;;;0.40;99.90;;;;;;4937487;28;20097;-59
2022/01/21 05:25:05;;;;;;;2.97;1.17;;;0.40;99.90;;;;;;4944734;28;20487;-59
2022/01/21 05:27:32;;;;;;;2.65;1.42;;;0.40;99.90;;;;;;4945830;28;20091;-59
2022/01/21 05:29:59;;;;;;;1.48;1.20;;;0.40;99.90;;;;;;4945612;28;20131;-59
2022/01/21 05:32:26;;;;;;;2.72;0.98;;;0.40;99.90;;;;;;4945265;28;20118;-59
2022/01/21 05:34:53;;;;;;;1.75;1.17;;;0.40;99.90;;;;;;4944175;28;20523;-58
2022/01/21 05:37:20;;;;;;;3.13;1.38;;;0.30;99.90;;;;;;4945779;28;20134;-58
2022/01/21 05:39:47;;;;;;;2.78;1.30;;;0.30;99.90;;;;;;4945199;28;20146;-58
2022/01/21 05:42:13;;;;;;;2.20;1.17;;;0.30;99.90;;;;;;4945561;28;20058;-58
2022/01/21 05:47:10;;;;;;;2.42;1.27;;;0.20;99.90;;;;;;4948866;28;20129;-58
2022/01/21 05:49:37;;;;;;;2.42;1.27;;;0.30;99.90;;;;;;4948386;28;20047;-59
2022/01/21 05:52:15;;;;;;;3.28;1.63;;;0.30;99.90;;;;;;4948915;28;20098;-59
2022/01/21 05:54:43;;;;;;;3.47;1.17;;;0.30;99.90;;;;;;4948405;28;20083;-58
2022/01/21 05:57:12;;;;;;;3.33;1.35;;;0.30;99.90;;;;;;4948697;28;20636;-59
2022/01/21 05:59:40;;;;;;;1.67;1.10;;;0.30;99.90;;;;;;4948563;28;20231;-59
2022/01/21 06:02:07;;;;;;;3.47;1.10;;;0.30;99.90;;;;;;4947203;28;20135;-59
2022/01/21 06:04:34;;;;;;;2.30;1.50;;;0.30;99.90;;;;;;4945341;28;20367;-59
2022/01/21 06:07:01;;;;;;;3.45;1.30;;;0.30;99.90;;;;;;4945392;28;20452;-59
2022/01/21 06:09:28;;;;;;;2.72;1.73;;;0.20;99.90;;;;;;4961175;28;20694;-59
2022/01/21 06:11:55;;;;;;;1.60;1.05;;;0.20;99.90;;;;;;4946677;28;20047;-58
2022/01/21 06:14:24;;;;;;;1.92;1.23;;;0.20;99.90;;;;;;4946731;28;20101;-59
2022/01/21 06:16:52;;;;;;;2.53;1.35;;;0.20;99.90;;;;;;4946727;28;20135;-59
2022/01/21 06:19:18;;;;;;;2.20;1.20;;;0.10;99.90;;;;;;4947718;28;20085;-58
2022/01/21 06:21:45;;;;;;;4.50;1.42;;;0.10;99.90;;;;;;4948171;28;20142;-58
2022/01/21 06:24:12;;;;;;;2.60;1.00;;;0.10;99.90;;;;;;4945340;28;20233;-59
2022/01/21 06:26:39;;;;;;;2.55;1.52;;;0.00;99.90;;;;;;4945910;28;20130;-58
2022/01/21 06:29:06;;;;;;;2.08;1.30;;;0.00;99.90;;;;;;4946761;28;20085;-58
2022/01/21 06:31:33;;;;;;;2.58;1.30;;;0.00;99.90;;;;;;4945566;28;20097;-58
2022/01/21 06:34:00;;;;;;;3.38;1.38;;;0.00;99.90;;;;;;4943535;28;20081;-58
2022/01/21 06:36:26;;;;;;;1.75;0.95;;;0.00;99.90;;;;;;4945928;29;20051;-58
2022/01/21 06:38:53;;;;;;;2.75;1.30;;;0.00;99.90;;;;;;4948220;28;20071;-58
2022/01/21 06:41:20;;;;;;;2.15;0.90;;;0.00;99.90;;;;;;4946719;29;20657;-58
2022/01/21 06:43:47;;;;;;;2.03;1.23;;;0.00;99.90;;;;;;4944641;28;20146;-59
2022/01/21 06:46:14;;;;;;;2.70;1.67;;;-0.10;99.90;;;;;;4945806;29;20054;-58
2022/01/21 06:48:43;;;;;;;2.42;1.65;;;0.00;99.90;;;;;;4945756;28;20047;-60
2022/01/21 06:51:10;;;;;;;2.33;1.48;;;0.00;99.90;;;;;;4953256;28;20148;-58
2022/01/21 06:53:37;;;;;;;2.92;1.50;;;0.00;99.90;;;;;;4947143;28;20077;-58
2022/01/21 06:56:04;;;;;;;3.78;1.67;;;0.00;99.90;;;;;;4939023;28;20081;-58
2022/01/21 06:58:30;;;;;;;3.03;1.50;;;-0.10;99.90;;;;;;4957213;28;20183;-58
2022/01/21 07:00:57;;;;;;;3.58;1.30;;;-0.10;99.90;;;;;;4938868;28;20166;-58
2022/01/21 07:03:24;;;;;;;2.08;1.10;;;-0.10;99.90;;;;;;4940824;28;20054;-58
2022/01/21 07:05:51;;;;;;;2.95;1.73;;;-0.10;99.90;;;;;;4950242;28;20419;-59
2022/01/21 07:08:19;;;;;;;2.60;1.27;;;-0.10;99.90;;;;;;4954607;28;20468;-59
2022/01/21 07:10:45;;;;;;;3.38;1.70;;;-0.10;99.90;;;;;;4949168;28;20657;-59
2022/01/21 07:13:12;;;;;;;2.55;1.60;;;-0.10;99.90;;;;;;4944521;28;20126;-59
2022/01/21 07:15:39;;;;;;;3.13;1.52;;;-0.10;99.90;;;;;;4939977;29;20142;-59
2022/01/21 07:18:06;;;;;;;3.63;1.73;;;-0.10;99.90;;;;;;4940868;28;20058;-59
2022/01/21 07:20:33;;;;;;;3.40;1.58;;;-0.10;99.90;;;;;;4945723;28;20166;-59
2022/01/21 07:22:59;;;;;;;2.65;1.70;;;-0.10;99.90;;;;;;4946750;28;20055;-58
2022/01/21 07:25:27;;;;;;;1.98;1.27;;;-0.10;99.90;;;;;;4941362;29;20520;-59
2022/01/21 07:27:54;;;;;;;3.42;1.75;;;-0.10;99.90;;;;;;4941984;28;20478;-59
2022/01/21 07:30:20;;;;;;;2.50;1.50;;;-0.10;99.90;;;;;;4941758;28;20169;-56
2022/01/21 07:32:47;;;;;;;2.22;1.35;;;-0.10;99.90;;;;;;4946683;28;20145;-59
2022/01/21 07:35:15;;;;;;;2.38;1.38;;;-0.10;99.90;;;;;;4947228;28;20073;-59
2022/01/21 07:38:01;;;;;;;1.95;1.38;;;-0.20;99.90;;;;;;4949756;28;20047;-59
2022/01/21 07:40:28;;;;;;;2.97;1.80;;;-0.20;99.90;;;;;;4948946;28;20134;-59
2022/01/21 07:42:55;;;;;;;1.52;1.20;;;-0.20;99.90;;;;;;4941765;28;20490;-59
2022/01/21 07:45:22;;;;;;;2.47;1.38;;;-0.20;99.90;;;;;;4941596;29;20061;-59
2022/01/21 07:47:49;;;;;;;3.40;1.80;;;-0.20;99.90;;;;;;4940936;29;20115;-59
2022/01/21 07:50:16;;;;;;;3.88;1.73;;;-0.20;99.90;;;;;;4939893;29;20085;-59
2022/01/21 07:52:43;;;;;;;3.00;1.80;;;-0.20;99.90;;;;;;4940530;28;20054;-59
2022/01/21 07:55:10;;;;;;;3.42;1.48;;;-0.20;99.90;;;;;;4940585;28;20363;-59
2022/01/21 07:57:37;;;;;;;2.40;1.50;;;-0.20;99.90;;;;;;4941317;28;20154;-58
2022/01/21 08:00:04;;;;;;;2.38;1.50;;;-0.20;99.90;;;;;;4941276;28;20059;-59
2022/01/21 08:02:32;;;;;;;3.67;1.95;;;-0.20;99.90;;;;;;4939607;28;20130;-55
2022/01/21 08:05:02;;;;;;;3.38;1.85;;;-0.20;99.90;;;;;;4940365;28;20065;-57
2022/01/21 08:07:28;;;;;;;4.43;2.85;;;-0.20;99.90;;;;;;4938619;28;20461;-59
2022/01/21 08:09:55;;;;;;;4.00;2.05;;;-0.20;99.90;;;;;;4951161;28;20142;-58
2022/01/21 08:12:22;;;;;;;4.25;2.15;;;-0.20;99.90;;;;;;4945801;28;20487;-59
2022/01/21 08:14:49;;;;;;;4.60;2.17;;;-0.20;99.90;;;;;;4940839;28;20134;-59
2022/01/21 08:17:15;;;;;;;3.30;2.10;;;-0.10;99.90;;;;;;4940870;28;20170;-58
2022/01/21 08:19:42;;;;;;;6.07;2.60;;;-0.10;99.90;;;;;;4945748;28;20083;-58
2022/01/21 08:22:09;;;;;;;5.40;2.72;;;-0.10;99.90;;;;;;4939353;28;20082;-58
2022/01/21 08:24:36;;;;;;;4.80;3.22;;;0.00;99.90;;;;;;4939106;28;20138;-58
2022/01/21 08:27:03;;;;;;;7.63;2.88;;;0.00;99.90;;;;;;4941414;28;20091;-58
2022/01/21 08:29:33;;;;;;;5.80;3.08;;;0.00;99.90;;;;;;4938777;28;20118;-58
2022/01/21 08:32:00;;;;;;;5.32;3.20;;;0.10;99.90;;;;;;4940238;28;20520;-59
2022/01/21 08:34:29;;;;;;;4.00;2.50;;;0.20;99.90;;;;;;4939732;28;20162;-58
2022/01/21 08:36:55;;;;;;;4.00;2.95;;;0.30;99.90;;;;;;4943962;28;20135;-58
2022/01/21 08:39:22;;;;;;;4.03;2.22;;;0.30;99.90;;;;;;4952946;28;20061;-58
2022/01/21 08:41:49;;;;;;;4.20;2.70;;;0.30;99.90;;;;;;4958511;28;20074;-58
2022/01/21 08:44:16;;;;;;;8.45;2.60;;;0.30;99.90;;;;;;4940802;28;20062;-58
2022/01/21 08:46:43;;;;;;;4.72;2.45;;;0.30;99.90;;;;;;4940629;28;20138;-58
2022/01/21 08:49:30;;;;;;;4.00;2.55;;;0.30;99.90;;;;;;4939818;28;20059;-58
2022/01/21 08:51:58;;;;;;;4.80;2.58;;;0.30;99.90;;;;;;4940260;28;20173;-57
2022/01/21 08:54:25;;;;;;;6.63;2.95;;;0.30;99.90;;;;;;4942031;28;20129;-58
2022/01/21 08:56:52;;;;;;;4.43;2.20;;;0.30;99.90;;;;;;4949759;28;20633;-57
2022/01/21 08:59:20;;;;;;;5.60;2.65;;;0.30;99.90;;;;;;4954496;28;20090;-58
2022/01/21 09:01:48;;;;;;;5.80;2.90;;;0.40;99.90;;;;;;4958941;28;20098;-58
2022/01/21 09:04:16;;;;;;;6.50;2.97;;;0.40;99.90;;;;;;4939291;28;20051;-58
2022/01/21 09:06:43;;;;;;;4.78;2.85;;;0.40;99.90;;;;;;4940283;28;20113;-58
2022/01/21 09:09:09;;;;;;;5.38;2.83;;;0.40;99.90;;;;;;4939673;28;20146;-58
2022/01/21 09:11:36;;;;;;;5.53;2.60;;;0.50;99.90;;;;;;4938721;29;20130;-58
2022/01/21 09:14:03;;;;;;;6.65;3.10;;;0.60;99.90;;;;;;4939531;28;20062;-58
2022/01/21 09:16:30;;;;;;;5.32;3.10;;;0.60;99.90;;;;;;4940580;28;20159;-58
2022/01/21 09:18:59;;;;;;;5.28;3.25;;;0.60;99.90;;;;;;4939388;28;20047;-58
2022/01/21 09:21:34;;;;;;;6.10;4.15;;;0.70;99.90;;;;;;4943331;28;20722;-59
2022/01/21 09:24:02;;;;;;;7.72;3.20;;;0.70;99.90;;;;;;4942999;28;20138;-58
2022/01/21 09:26:28;;;;;;;6.60;3.63;;;0.70;99.90;;;;;;4943982;28;20126;-59
2022/01/21 09:28:56;;;;;;;7.07;3.17;;;0.80;99.90;;;;;;4942459;28;20158;-58
2022/01/21 09:31:23;;;;;;;6.10;2.92;;;0.80;99.90;;;;;;4943267;28;20399;-58
2022/01/21 09:34:10;;;;;;;7.35;3.97;;;0.90;99.90;;;;;;4942229;28;20147;-55
2022/01/21 09:36:37;;;;;;;4.60;2.92;;;0.90;99.90;;;;;;4942688;28;20424;-59
2022/01/21 09:39:05;;;;;;;5.65;2.70;;;1.00;99.90;;;;;;4943933;28;20062;-58
2022/01/21 09:41:31;;;;;;;4.65;3.08;;;1.10;99.90;;;;;;4943665;28;20141;-58
2022/01/21 09:43:59;;;;;;;6.13;3.35;;;1.10;99.90;;;;;;4943222;28;20078;-58
2022/01/21 09:46:31;;;;;;;8.68;3.47;;;1.20;99.90;;;;;;4946010;28;20501;-59
2022/01/21 09:49:25;;;;;;;5.35;3.15;;;1.30;99.90;;;;;;4942737;28;20043;-59
2022/01/21 09:51:56;;;;;;;;;;;1.30;99.90;;;;;;4943239;28;20113;-58
2022/01/21 09:54:24;;;;;;;4.63;2.83;;;1.40;99.90;;;;;;4940626;28;20474;-56
2022/01/21 09:56:52;;;;;;;6.35;2.72;;;1.40;99.90;;;;;;4943549;28;20083;-59
2022/01/21 09:59:20;;;;;;;5.15;3.20;;;1.50;99.90;;;;;;4943672;28;20118;-59
2022/01/21 10:01:49;;;;;;;3.85;2.60;;;1.60;99.90;;;;;;4942616;28;20051;-59
2022/01/21 10:04:18;;;;;;;5.10;2.95;;;1.60;99.90;;;;;;4942028;28;20288;-59
2022/01/21 10:06:46;;;;;;;5.32;3.22;;;1.70;99.90;;;;;;4924323;29;20351;-59
2022/01/21 10:09:15;;;;;;;12.02;4.55;;;1.80;99.90;;;;;;4925740;29;20055;-59
2022/01/21 10:11:48;;;;;;;9.20;4.70;;;1.80;99.90;;;;;;4942676;28;20086;-59
2022/01/21 10:14:15;;;;;;;6.78;4.43;;;1.90;99.90;;;;;;4941821;28;20055;-59
2022/01/21 10:16:43;;;;;;;7.63;3.83;;;2.00;99.90;;;;;;4942691;28;20130;-59
2022/01/21 10:19:12;;;;;;;6.30;3.70;;;2.00;99.90;;;;;;4941602;28;20145;-59
2022/01/21 10:21:43;;;;;;;5.78;3.72;;;2.10;99.90;;;;;;4941997;28;20083;-60
2022/01/21 10:24:14;;;;;;;7.40;3.60;;;2.20;99.90;;;;;;4941976;28;20230;-59
2022/01/21 10:26:49;;;;;;;6.13;4.80;;;2.20;99.90;;;;;;4943578;28;20313;-59
2022/01/21 10:29:16;;;;;;;6.78;3.83;;;2.40;99.90;;;;;;4942940;28;20154;-59
2022/01/21 10:31:57;;;;;;;6.53;4.55;;;2.60;99.90;;;;;;4941361;28;20455;-59
2022/01/21 10:34:29;;;;;;;7.95;3.92;;;2.90;99.90;;;;;;4941589;28;20228;-60
2022/01/21 10:37:04;;;;;;;5.00;3.50;;;3.10;99.90;;;;;;4941332;28;20451;-59
2022/01/21 10:39:34;;;;;;;7.10;4.60;;;3.20;99.90;;;;;;4942490;28;20145;-59
2022/01/21 10:42:01;;;;;;;6.07;4.50;;;3.40;99.90;;;;;;4941571;28;20471;-60
2022/01/21 10:44:30;;;;;;;9.23;5.05;;;3.40;99.90;;;;;;4941880;28;20134;-59
2022/01/21 10:47:09;;;;;;;7.10;4.72;;;3.50;99.90;;;;;;4944482;28;20058;-58
2022/01/21 10:49:39;;;;;;;6.80;4.38;;;3.60;99.90;;;;;;4931691;29;20145;-59
2022/01/21 10:52:09;;;;;;;5.93;4.45;;;3.60;99.90;;;;;;4937095;28;20055;-58
2022/01/21 10:54:43;;;;;;;5.57;4.38;;;3.60;99.90;;;;;;4940915;28;20263;-57
2022/01/21 10:57:18;;;;;;;5.95;4.15;;;3.70;99.90;;;;;;4942146;28;20134;-59
2022/01/21 10:59:59;;;;;;;7.22;4.05;;;3.80;99.90;;;;;;4942298;28;20311;-56
2022/01/21 11:02:49;;;;;;;5.07;3.35;;;3.90;99.90;;;;;;4940722;28;20051;-58
2022/01/21 11:05:23;;;;;;;4.95;3.88;;;4.10;99.90;;;;;;4941148;28;20062;-58
2022/01/21 11:07:58;;;;;;;6.15;3.45;;;4.10;99.90;;;;;;4940565;28;20067;-60
2022/01/21 11:10:35;;;;;;;4.95;3.42;;;4.10;99.90;;;;;;4941897;28;20713;-60
2022/01/21 11:13:12;;;;;;;6.20;3.90;;;4.20;99.90;;;;;;4942482;28;20090;-60
2022/01/21 11:16:04;;;;;;;5.28;3.50;;;4.30;99.90;;;;;;4945241;28;20641;-58
2022/01/21 11:18:57;;;;;;;6.57;4.50;;;4.20;99.90;;;;;;4938215;28;20085;-60
2022/01/21 11:21:43;;;;;;;10.23;4.57;;;4.20;99.90;;;;;;4939140;28;20450;-60
2022/01/21 11:24:10;;;;;;;6.45;4.25;;;4.10;99.90;;;;;;4941145;28;20206;-59
2022/01/21 11:26:37;;;;;;;8.00;4.45;;;4.20;99.90;;;;;;4941675;28;20078;-59
2022/01/21 11:29:04;;;;;;;7.45;5.35;;;4.20;99.90;;;;;;4941865;28;20113;-59
2022/01/21 11:31:31;;;;;;;9.60;4.68;;;4.20;99.90;;;;;;4941466;28;20133;-58
2022/01/21 11:34:09;;;;;;;9.25;4.20;;;4.20;99.90;;;;;;4943430;28;20335;-58
2022/01/21 11:36:36;;;;;;;5.88;4.00;;;4.20;99.90;;;;;;4949372;28;20086;-59
2022/01/21 11:39:04;;;;;;;7.28;4.07;;;4.30;99.90;;;;;;4940974;28;20089;-58
2022/01/21 11:41:33;;;;;;;6.22;3.97;;;4.30;99.90;;;;;;4957061;28;20061;-58
2022/01/21 11:44:02;;;;;;;6.10;4.15;;;4.40;99.90;;;;;;4943242;28;20055;-57
2022/01/21 11:49:04;;;;;;;7.18;4.72;;;4.30;99.90;;;;;;4931497;28;20058;-59
2022/01/21 11:51:33;;;;;;;6.57;4.60;;;4.30;99.90;;;;;;4953712;28;20093;-59
2022/01/21 11:54:07;;;;;;;9.23;4.32;;;4.30;99.90;;;;;;4943452;28;20325;-59
2022/01/21 11:56:53;;;;;;;8.23;5.10;;;4.30;99.90;;;;;;4941723;28;20462;-59
2022/01/21 12:01:52;;;;;;;7.68;4.47;;;4.30;99.90;;;;;;4940269;28;20106;-59
2022/01/21 12:04:31;;;;;;;7.03;4.47;;;4.30;99.90;;;;;;4939760;28;20065;-58
2022/01/21 12:06:58;;;;;;;7.55;5.18;;;4.40;99.90;;;;;;4940861;28;20079;-58
2022/01/21 12:09:57;;;;;;;9.95;4.50;;;4.40;99.90;;;;;;4940375;28;20078;-59
2022/01/21 12:12:26;;;;;;;7.05;4.63;;;4.40;99.90;;;;;;4941045;28;20574;-59
2022/01/21 12:15:02;;;;;;;10.27;5.80;;;4.40;99.90;;;;;;4940025;28;20110;-58
2022/01/21 12:17:44;;;;;;;8.20;4.93;;;4.40;99.90;;;;;;4938976;28;20289;-59
2022/01/21 12:20:11;;;;;;;10.52;4.88;;;4.30;99.90;;;;;;4940741;28;20066;-58
2022/01/21 12:22:38;;;;;;;6.55;4.60;;;4.40;99.90;;;;;;4940552;28;20533;-59
2022/01/21 12:25:07;;;;;;;7.63;4.90;;;4.40;99.90;;;;;;4939736;28;20893;-58
2022/01/21 12:27:35;;;;;;;6.47;4.65;;;4.50;99.90;;;;;;4940345;28;20063;-56
2022/01/21 12:30:28;;;;;;;10.25;4.88;;;4.50;99.90;;;;;;4932525;29;20051;-58
2022/01/21 12:32:57;;;;;;;7.70;4.40;;;4.40;99.90;;;;;;4935448;28;20614;-58
2022/01/21 12:35:23;;;;;;;4.95;3.90;;;4.50;99.90;;;;;;4950149;28;20064;-56
2022/01/21 12:40:59;;;;;;;7.18;4.15;;;4.60;99.90;;;;;;4931886;29;20078;-58
2022/01/21 12:43:39;;;;;;;7.57;3.97;;;4.60;99.90;;;;;;4939486;28;20142;-58
2022/01/21 12:46:11;;;;;;;7.03;3.50;;;4.60;99.90;;;;;;4947220;28;20153;-58
2022/01/21 12:48:39;;;;;;;7.50;4.18;;;4.60;99.90;;;;;;4964862;28;20055;-58
2022/01/21 12:51:17;;;;;;;9.38;4.80;;;4.50;99.90;;;;;;4939801;28;20051;-57
2022/01/21 12:56:46;;;;;;;7.03;3.70;;;4.50;99.90;;;;;;4940810;28;20141;-58
2022/01/21 12:59:19;;;;;;;7.88;4.00;;;4.60;99.90;;;;;;4936293;28;20098;-58
2022/01/21 13:01:46;;;;;;;8.25;4.55;;;4.70;99.90;;;;;;4939930;29;20617;-58
2022/01/21 13:04:15;;;;;;;10.52;4.50;;;4.60;99.90;;;;;;4938804;28;20491;-58
2022/01/21 13:07:07;;;;;;;8.45;4.28;;;4.70;99.90;;;;;;4948397;28;20134;-58
2022/01/21 13:10:04;;;;;;;4.57;2.88;;;4.70;99.90;;;;;;4940812;28;20855;-57
2022/01/21 13:13:17;;;;;;;6.80;3.60;;;4.80;99.90;;;;;;4939302;28;20130;-58
2022/01/21 13:15:38;;;;;;;10.73;3.72;;;4.80;99.90;;;;;;4938263;29;20086;-58
2022/01/21 13:18:10;;;;;;;9.57;3.75;;;4.80;99.90;;;;;;4941203;28;20122;-58
2022/01/21 13:20:38;;;;;;;6.13;3.65;;;4.80;99.90;;;;;;4940126;28;20492;-58
2022/01/21 13:23:05;;;;;;;8.05;3.80;;;4.80;99.90;;;;;;4940096;28;20051;-58
2022/01/21 13:25:33;;;;;;;5.60;3.38;;;4.80;99.90;;;;;;4939755;28;20141;-58
2022/01/21 13:28:01;;;;;;;6.97;3.67;;;4.90;99.90;;;;;;4940796;28;20522;-58
2022/01/21 13:30:30;;;;;;;6.82;3.67;;;5.00;99.90;;;;;;4938655;28;20525;-58
2022/01/21 13:33:02;;;;;;;6.55;3.42;;;4.90;99.90;;;;;;4939194;28;20420;-58
2022/01/21 13:35:29;;;;;;;8.18;3.63;;;4.90;99.90;;;;;;4939059;28;20094;-58
2022/01/21 13:38:15;;;;;;;8.02;3.70;;;4.90;99.90;;;;;;4939610;28;20454;-58
2022/01/21 13:40:53;;;;;;;8.32;3.78;;;4.90;99.90;;;;;;4939853;28;20550;-59
2022/01/21 13:43:22;;;;;;;8.80;4.00;;;4.90;99.90;;;;;;4940225;28;20453;-58
2022/01/21 13:46:03;;;;;;;7.43;4.10;;;4.90;99.90;;;;;;4939553;28;20051;-58
2022/01/21 13:48:32;;;;;;;8.90;3.88;;;4.90;99.90;;;;;;4943260;28;20059;-56
2022/01/21 13:51:01;;;;;;;8.45;4.32;;;4.90;99.90;;;;;;4944800;28;20044;-58
2022/01/21 13:53:28;;;;;;;6.22;3.75;;;4.90;99.90;;;;;;4938515;28;20170;-57
2022/01/21 13:55:57;;;;;;;9.70;4.72;;;4.90;99.90;;;;;;4939682;28;20218;-58
2022/01/21 13:58:25;;;;;;;8.77;4.15;;;4.90;99.90;;;;;;4940640;28;20115;-58
2022/01/21 14:00:53;;;;;;;8.25;4.18;;;4.90;99.90;;;;;;4954242;28;20391;-57
2022/01/21 14:03:26;;;;;;;7.25;3.75;;;4.90;99.90;;;;;;4939403;28;20051;-58
2022/01/21 14:05:57;;;;;;;8.88;4.05;;;4.90;99.90;;;;;;4939292;28;20095;-59
2022/01/21 14:08:27;;;;;;;7.60;4.32;;;5.00;99.90;;;;;;4943945;28;20145;-58
2022/01/21 14:11:24;;;;;;;7.18;3.72;;;5.00;99.90;;;;;;4942993;28;20534;-58